createdAt,value
2023-07-11T00:00:35.243Z,86.66
2023-07-11T00:01:35.224Z,86.38
2023-07-11T00:02:35.194Z,86.28
2023-07-11T00:03:35.193Z,86.47
2023-07-11T00:04:56.140Z,86.57
2023-07-11T00:05:35.118Z,86.47
2023-07-11T00:06:35.091Z,86.47
2023-07-11T00:07:35.043Z,86.08
2023-07-11T00:08:35.014Z,87.15
2023-07-11T00:09:34.980Z,86.57
2023-07-11T00:10:55.951Z,87.24
2023-07-11T00:11:34.924Z,87.05
2023-07-11T00:12:34.899Z,86.57
2023-07-11T00:13:34.885Z,86.91
2023-07-11T00:14:34.849Z,86.66
2023-07-11T00:15:34.817Z,86.82
2023-07-11T00:16:55.862Z,86.82
2023-07-11T00:17:34.785Z,86.82
2023-07-11T00:18:34.730Z,87.10
2023-07-11T00:19:34.702Z,87.10
2023-07-11T00:20:34.662Z,87.30
2023-07-11T00:21:34.652Z,86.82
2023-07-11T00:22:55.605Z,87.49
2023-07-11T00:23:34.608Z,87.68
2023-07-11T00:24:34.562Z,87.49
2023-07-11T00:25:34.533Z,87.49
2023-07-11T00:26:34.490Z,86.82
2023-07-11T00:27:34.470Z,87.40
2023-07-11T00:28:55.431Z,87.20
2023-07-11T00:29:34.418Z,87.49
2023-07-11T00:30:34.412Z,87.40
2023-07-11T00:31:34.450Z,87.30
2023-07-11T00:32:34.366Z,87.30
2023-07-11T00:33:34.295Z,87.26
2023-07-11T00:34:55.258Z,87.54
2023-07-11T00:35:34.239Z,87.26
2023-07-11T00:36:34.202Z,87.49
2023-07-11T00:37:34.168Z,87.59
2023-07-11T00:38:34.162Z,87.35
2023-07-11T00:39:34.134Z,87.26
2023-07-11T00:40:55.085Z,87.26
2023-07-11T00:41:34.072Z,87.16
2023-07-11T00:42:34.025Z,87.16
2023-07-11T00:43:34.011Z,87.54
2023-07-11T00:44:33.986Z,88.12
2023-07-11T00:45:33.956Z,88.12
2023-07-11T00:46:54.955Z,88.02
2023-07-11T00:47:33.922Z,87.93
2023-07-11T00:48:33.873Z,87.74
2023-07-11T00:49:33.833Z,88.31
2023-07-11T00:50:33.808Z,88.02
2023-07-11T00:51:33.766Z,88.12
2023-07-11T00:52:54.760Z,88.22
2023-07-11T00:53:33.712Z,88.22
2023-07-11T00:54:33.690Z,88.31
2023-07-11T00:55:33.668Z,88.31
2023-07-11T00:56:33.620Z,88.22
2023-07-11T00:57:33.612Z,88.12
2023-07-11T00:58:54.568Z,88.51
2023-07-11T00:59:33.546Z,88.70
2023-07-11T01:00:33.532Z,88.70
2023-07-11T01:01:33.478Z,88.60
2023-07-11T01:02:33.499Z,88.70
2023-07-11T01:03:33.556Z,88.51
2023-07-11T01:04:54.384Z,88.85
2023-07-11T01:05:33.360Z,88.41
2023-07-11T01:06:33.332Z,88.65
2023-07-11T01:07:33.311Z,88.41
2023-07-11T01:08:33.280Z,88.27
2023-07-11T01:09:33.254Z,88.27
2023-07-11T01:10:54.829Z,88.17
2023-07-11T01:11:33.231Z,88.56
2023-07-11T01:12:33.151Z,88.46
2023-07-11T01:13:33.166Z,88.95
2023-07-11T01:14:33.154Z,88.95
2023-07-11T01:15:33.080Z,88.95
2023-07-11T01:16:54.126Z,89.04
2023-07-11T01:17:33.045Z,88.56
2023-07-11T01:18:32.992Z,88.75
2023-07-11T01:19:32.955Z,89.14
2023-07-11T01:20:32.915Z,88.65
2023-07-11T01:21:32.894Z,89.04
2023-07-11T01:22:53.861Z,89.04
2023-07-11T01:23:32.838Z,89.14
2023-07-11T01:24:32.807Z,89.43
2023-07-11T01:25:32.780Z,89.14
2023-07-11T01:26:32.745Z,89.14
2023-07-11T01:27:32.731Z,88.95
2023-07-11T01:28:53.677Z,89.33
2023-07-11T01:29:32.665Z,89.33
2023-07-11T01:30:32.673Z,89.23
2023-07-11T01:31:32.610Z,89.53
2023-07-11T01:32:32.582Z,89.23
2023-07-11T01:33:32.547Z,89.33
2023-07-11T01:34:53.507Z,89.53
2023-07-11T01:35:32.486Z,89.29
2023-07-11T01:36:32.474Z,89.62
2023-07-11T01:37:32.428Z,89.19
2023-07-11T01:38:32.383Z,89.23
2023-07-11T01:39:32.374Z,89.67
2023-07-11T01:40:53.331Z,89.72
2023-07-11T01:41:32.311Z,89.23
2023-07-11T01:42:32.284Z,89.81
2023-07-11T01:43:32.254Z,89.72
2023-07-11T01:44:32.213Z,89.86
2023-07-11T01:45:32.192Z,89.67
2023-07-11T01:46:53.163Z,89.77
2023-07-11T01:47:32.149Z,89.86
2023-07-11T01:48:32.096Z,89.91
2023-07-11T01:49:32.066Z,90.00
2023-07-11T01:50:32.034Z,90.10
2023-07-11T01:51:32.248Z,89.96
2023-07-11T01:52:52.970Z,89.77
2023-07-11T01:53:31.971Z,89.96
2023-07-11T01:54:31.928Z,89.86
2023-07-11T01:55:31.894Z,89.91
2023-07-11T01:56:31.844Z,89.81
2023-07-11T01:57:31.840Z,89.77
2023-07-11T01:58:52.785Z,89.86
2023-07-11T01:59:31.755Z,90.06
2023-07-11T02:00:31.725Z,89.67
2023-07-11T02:01:31.760Z,89.67
2023-07-11T02:02:31.734Z,89.77
2023-07-11T02:03:31.720Z,89.96
2023-07-11T02:04:52.626Z,89.86
2023-07-11T02:05:31.593Z,89.96
2023-07-11T02:06:31.575Z,89.77
2023-07-11T02:07:31.541Z,89.67
2023-07-11T02:08:31.522Z,90.34
2023-07-11T02:09:31.484Z,90.34
2023-07-11T02:10:52.466Z,89.58
2023-07-11T02:11:31.416Z,90.16
2023-07-11T02:12:31.393Z,90.25
2023-07-11T02:13:31.399Z,90.34
2023-07-11T02:14:31.321Z,90.16
2023-07-11T02:15:31.309Z,90.25
2023-07-11T02:16:52.421Z,90.44
2023-07-11T02:17:31.417Z,90.83
2023-07-11T02:18:31.227Z,90.73
2023-07-11T02:19:31.182Z,90.25
2023-07-11T02:20:31.156Z,90.64
2023-07-11T02:21:31.130Z,90.73
2023-07-11T02:22:52.082Z,90.92
2023-07-11T02:23:31.123Z,90.64
2023-07-11T02:24:31.036Z,90.83
2023-07-11T02:25:31.018Z,90.92
2023-07-11T02:26:30.986Z,91.12
2023-07-11T02:27:31.060Z,91.12
2023-07-11T02:28:51.907Z,91.12
2023-07-11T02:29:30.906Z,91.12
2023-07-11T02:30:30.853Z,90.92
2023-07-11T02:31:30.847Z,91.12
2023-07-11T02:32:30.832Z,90.54
2023-07-11T02:33:30.771Z,90.54
2023-07-11T02:34:51.747Z,90.92
2023-07-11T02:35:30.715Z,90.54
2023-07-11T02:36:30.683Z,90.44
2023-07-11T02:37:30.649Z,90.73
2023-07-11T02:38:30.611Z,90.83
2023-07-11T02:39:30.606Z,91.02
2023-07-11T02:40:51.563Z,90.83
2023-07-11T02:41:30.558Z,91.02
2023-07-11T02:42:30.495Z,91.12
2023-07-11T02:43:30.482Z,90.83
2023-07-11T02:44:30.439Z,90.54
2023-07-11T02:45:30.417Z,91.02
2023-07-11T02:46:51.380Z,91.12
2023-07-11T02:47:30.416Z,90.73
2023-07-11T02:48:30.375Z,91.02
2023-07-11T02:49:30.296Z,90.83
2023-07-11T02:50:30.269Z,91.02
2023-07-11T02:51:30.234Z,90.88
2023-07-11T02:52:51.194Z,90.73
2023-07-11T02:53:30.167Z,90.83
2023-07-11T02:54:30.142Z,90.73
2023-07-11T02:55:30.121Z,90.69
2023-07-11T02:56:30.094Z,90.73
2023-07-11T02:57:30.061Z,90.59
2023-07-11T02:58:51.038Z,90.64
2023-07-11T02:59:30.002Z,90.54
2023-07-11T03:00:29.956Z,90.73
2023-07-11T03:01:29.975Z,90.78
2023-07-11T03:02:29.917Z,90.73
2023-07-11T03:03:29.880Z,90.34
2023-07-11T03:04:50.860Z,90.54
2023-07-11T03:05:29.956Z,90.73
2023-07-11T03:06:29.789Z,90.54
2023-07-11T03:07:29.756Z,90.64
2023-07-11T03:08:29.731Z,89.92
2023-07-11T03:09:29.702Z,89.53
2023-07-11T03:10:50.670Z,89.53
2023-07-11T03:11:29.638Z,89.92
2023-07-11T03:12:29.603Z,90.01
2023-07-11T03:13:29.647Z,90.01
2023-07-11T03:14:29.554Z,90.11
2023-07-11T03:15:29.532Z,90.11
2023-07-11T03:16:50.562Z,90.01
2023-07-11T03:17:29.460Z,89.77
2023-07-11T03:18:29.446Z,89.48
2023-07-11T03:19:29.406Z,89.82
2023-07-11T03:20:29.366Z,89.86
2023-07-11T03:21:29.354Z,89.77
2023-07-11T03:22:50.308Z,89.00
2023-07-11T03:23:29.341Z,89.05
2023-07-11T03:24:29.242Z,89.09
2023-07-11T03:25:29.227Z,88.61
2023-07-11T03:26:29.191Z,88.57
2023-07-11T03:27:29.161Z,88.61
2023-07-11T03:28:50.146Z,89.00
2023-07-11T03:29:29.112Z,89.00
2023-07-11T03:30:29.100Z,88.90
2023-07-11T03:31:29.143Z,88.81
2023-07-11T03:32:29.061Z,89.00
2023-07-11T03:33:28.991Z,88.57
2023-07-11T03:34:57.973Z,89.05
2023-07-11T03:35:28.925Z,88.85
2023-07-11T03:36:28.893Z,88.90
2023-07-11T03:37:28.866Z,88.90
2023-07-11T03:38:28.843Z,88.51
2023-07-11T03:39:28.817Z,88.18
2023-07-11T03:40:49.778Z,88.71
2023-07-11T03:41:28.752Z,88.18
2023-07-11T03:42:28.733Z,88.13
2023-07-11T03:43:28.685Z,88.38
2023-07-11T03:44:28.650Z,88.42
2023-07-11T03:45:28.627Z,88.28
2023-07-11T03:46:49.603Z,88.23
2023-07-11T03:47:28.581Z,88.18
2023-07-11T03:48:28.542Z,88.42
2023-07-11T03:49:28.501Z,88.57
2023-07-11T03:50:28.496Z,88.76
2023-07-11T03:51:28.445Z,88.61
2023-07-11T03:52:49.431Z,88.51
2023-07-11T03:53:28.395Z,88.32
2023-07-11T03:54:28.378Z,89.00
2023-07-11T03:55:28.326Z,88.57
2023-07-11T03:56:28.381Z,88.90
2023-07-11T03:57:28.264Z,88.76
2023-07-11T03:58:49.244Z,88.90
2023-07-11T03:59:28.209Z,88.76
2023-07-11T04:00:28.201Z,88.76
2023-07-11T04:01:28.208Z,88.67
2023-07-11T04:02:28.159Z,88.38
2023-07-11T04:03:28.170Z,89.00
2023-07-11T04:04:49.057Z,88.61
2023-07-11T04:05:28.030Z,89.05
2023-07-11T04:06:28.000Z,89.05
2023-07-11T04:07:27.976Z,89.05
2023-07-11T04:08:27.949Z,89.05
2023-07-11T04:09:27.924Z,89.24
2023-07-11T04:10:48.878Z,89.05
2023-07-11T04:11:27.871Z,89.24
2023-07-11T04:12:27.821Z,89.05
2023-07-11T04:13:27.825Z,88.67
2023-07-11T04:14:27.772Z,88.67
2023-07-11T04:15:27.728Z,88.90
2023-07-11T04:16:48.810Z,89.53
2023-07-11T04:17:27.668Z,88.85
2023-07-11T04:18:27.641Z,89.24
2023-07-11T04:19:27.590Z,89.39
2023-07-11T04:20:27.588Z,89.29
2023-07-11T04:21:27.558Z,89.05
2023-07-11T04:22:48.523Z,89.43
2023-07-11T04:23:27.488Z,89.15
2023-07-11T04:24:28.375Z,89.15
2023-07-11T04:25:27.428Z,89.63
2023-07-11T04:26:27.414Z,89.63
2023-07-11T04:27:27.393Z,89.72
2023-07-11T04:28:48.349Z,89.63
2023-07-11T04:29:27.313Z,89.53
2023-07-11T04:30:27.302Z,89.82
2023-07-11T04:31:27.290Z,89.82
2023-07-11T04:32:27.242Z,89.72
2023-07-11T04:33:27.209Z,89.96
2023-07-11T04:34:48.169Z,89.96
2023-07-11T04:35:27.133Z,89.82
2023-07-11T04:36:27.132Z,89.67
2023-07-11T04:37:27.082Z,90.25
2023-07-11T04:38:27.045Z,89.67
2023-07-11T04:39:27.055Z,89.96
2023-07-11T04:40:47.987Z,89.58
2023-07-11T04:41:26.958Z,89.77
2023-07-11T04:42:26.925Z,90.34
2023-07-11T04:43:26.890Z,90.40
2023-07-11T04:44:26.872Z,90.30
2023-07-11T04:45:26.850Z,90.16
2023-07-11T04:46:47.851Z,90.25
2023-07-11T04:47:26.815Z,90.16
2023-07-11T04:48:26.775Z,89.67
2023-07-11T04:49:26.763Z,90.16
2023-07-11T04:50:26.681Z,90.16
2023-07-11T04:51:26.679Z,90.06
2023-07-11T04:52:47.636Z,90.44
2023-07-11T04:53:26.598Z,90.34
2023-07-11T04:54:27.331Z,90.16
2023-07-11T04:55:26.541Z,90.16
2023-07-11T04:56:26.507Z,90.25
2023-07-11T04:57:26.472Z,90.34
2023-07-11T04:58:47.453Z,90.25
2023-07-11T04:59:26.433Z,90.06
2023-07-11T05:00:26.388Z,90.16
2023-07-11T05:01:26.407Z,90.64
2023-07-11T05:02:26.344Z,90.64
2023-07-11T05:03:26.330Z,90.25
2023-07-11T05:04:47.267Z,90.64
2023-07-11T05:05:26.241Z,90.34
2023-07-11T05:06:26.237Z,89.96
2023-07-11T05:07:26.190Z,90.34
2023-07-11T05:08:26.172Z,90.16
2023-07-11T05:09:26.117Z,90.16
2023-07-11T05:10:47.087Z,90.83
2023-07-11T05:11:26.052Z,90.25
2023-07-11T05:12:26.050Z,90.44
2023-07-11T05:13:26.006Z,90.73
2023-07-11T05:14:25.975Z,90.25
2023-07-11T05:15:25.981Z,90.34
2023-07-11T05:16:46.958Z,90.34
2023-07-11T05:17:25.982Z,90.34
2023-07-11T05:18:25.853Z,90.25
2023-07-11T05:19:25.830Z,90.54
2023-07-11T05:20:25.799Z,90.54
2023-07-11T05:21:25.771Z,90.34
2023-07-11T05:22:46.722Z,90.34
2023-07-11T05:23:25.711Z,90.48
2023-07-11T05:24:25.678Z,90.30
2023-07-11T05:25:25.652Z,90.83
2023-07-11T05:26:25.635Z,90.58
2023-07-11T05:27:25.571Z,90.78
2023-07-11T05:28:46.583Z,90.48
2023-07-11T05:29:25.542Z,90.20
2023-07-11T05:30:25.521Z,90.30
2023-07-11T05:31:25.479Z,90.30
2023-07-11T05:32:25.442Z,90.20
2023-07-11T05:33:25.418Z,90.10
2023-07-11T05:34:46.370Z,90.58
2023-07-11T05:35:25.368Z,90.10
2023-07-11T05:36:25.327Z,90.39
2023-07-11T05:37:25.302Z,90.10
2023-07-11T05:38:25.262Z,90.30
2023-07-11T05:39:25.229Z,90.20
2023-07-11T05:40:46.212Z,90.39
2023-07-11T05:41:25.182Z,90.39
2023-07-11T05:42:25.156Z,90.58
2023-07-11T05:43:25.115Z,90.10
2023-07-11T05:44:25.092Z,90.58
2023-07-11T05:45:25.067Z,90.48
2023-07-11T05:46:48.161Z,90.20
2023-07-11T05:47:25.035Z,89.72
2023-07-11T05:48:24.967Z,90.00
2023-07-11T05:49:24.935Z,89.81
2023-07-11T05:50:24.924Z,89.81
2023-07-11T05:51:24.903Z,89.86
2023-07-11T05:52:45.863Z,90.10
2023-07-11T05:53:26.185Z,89.95
2023-07-11T05:54:24.785Z,89.86
2023-07-11T05:55:24.759Z,90.15
2023-07-11T05:56:24.750Z,90.15
2023-07-11T05:57:24.702Z,89.86
2023-07-11T05:58:45.677Z,90.05
2023-07-11T05:59:24.651Z,89.86
2023-07-11T06:00:24.622Z,89.86
2023-07-11T06:01:24.601Z,89.95
2023-07-11T06:02:24.612Z,90.15
2023-07-11T06:03:24.545Z,89.95
2023-07-11T06:04:45.493Z,89.37
2023-07-11T06:05:24.468Z,89.86
2023-07-11T06:06:24.453Z,89.95
2023-07-11T06:07:24.421Z,89.76
2023-07-11T06:08:24.386Z,89.67
2023-07-11T06:09:24.349Z,89.57
2023-07-11T06:10:45.346Z,89.37
2023-07-11T06:11:24.290Z,89.51
2023-07-11T06:12:24.265Z,89.61
2023-07-11T06:13:24.242Z,89.51
2023-07-11T06:14:24.350Z,89.03
2023-07-11T06:15:24.171Z,89.03
2023-07-11T06:16:46.354Z,89.23
2023-07-11T06:17:24.145Z,89.42
2023-07-11T06:18:24.109Z,89.23
2023-07-11T06:19:24.056Z,89.32
2023-07-11T06:20:24.029Z,89.23
2023-07-11T06:21:24.009Z,88.75
2023-07-11T06:22:44.973Z,89.03
2023-07-11T06:23:23.949Z,89.13
2023-07-11T06:24:23.917Z,89.42
2023-07-11T06:25:23.896Z,89.13
2023-07-11T06:26:23.869Z,89.42
2023-07-11T06:27:23.830Z,89.03
2023-07-11T06:28:44.868Z,89.27
2023-07-11T06:29:23.778Z,89.27
2023-07-11T06:30:23.763Z,88.79
2023-07-11T06:31:23.757Z,88.79
2023-07-11T06:32:23.716Z,89.37
2023-07-11T06:33:23.657Z,88.69
2023-07-11T06:34:44.650Z,89.27
2023-07-11T06:35:23.604Z,88.50
2023-07-11T06:36:23.575Z,88.50
2023-07-11T06:37:23.536Z,89.27
2023-07-11T06:38:23.508Z,88.98
2023-07-11T06:39:23.485Z,88.40
2023-07-11T06:40:44.447Z,88.79
2023-07-11T06:41:23.459Z,88.83
2023-07-11T06:42:23.396Z,88.79
2023-07-11T06:43:23.371Z,88.64
2023-07-11T06:44:23.380Z,88.45
2023-07-11T06:45:23.346Z,88.15
2023-07-11T06:46:44.286Z,88.64
2023-07-11T06:47:23.250Z,88.49
2023-07-11T06:48:23.246Z,87.91
2023-07-11T06:49:23.251Z,88.29
2023-07-11T06:50:24.214Z,88.01
2023-07-11T06:51:23.137Z,88.29
2023-07-11T06:52:44.108Z,87.52
2023-07-11T06:53:23.076Z,87.71
2023-07-11T06:54:23.069Z,87.91
2023-07-11T06:55:23.021Z,87.71
2023-07-11T06:56:23.008Z,87.57
2023-07-11T06:57:22.974Z,87.52
2023-07-11T06:58:43.946Z,87.76
2023-07-11T06:59:22.919Z,87.76
2023-07-11T07:00:22.884Z,86.99
2023-07-11T07:01:35.268Z,86.69
2023-07-11T07:02:22.972Z,86.89
2023-07-11T07:03:22.898Z,86.41
2023-07-11T07:04:43.776Z,86.31
2023-07-11T07:05:22.748Z,86.74
2023-07-11T07:06:22.727Z,86.79
2023-07-11T07:07:22.709Z,86.45
2023-07-11T07:08:22.668Z,85.97
2023-07-11T07:09:23.488Z,85.48
2023-07-11T07:10:43.602Z,85.58
2023-07-11T07:11:22.665Z,85.39
2023-07-11T07:12:22.593Z,85.10
2023-07-11T07:13:22.605Z,84.22
2023-07-11T07:14:22.612Z,84.46
2023-07-11T07:15:22.450Z,83.78
2023-07-11T07:16:43.474Z,83.59
2023-07-11T07:17:22.599Z,83.88
2023-07-11T07:18:22.387Z,83.78
2023-07-11T07:19:22.370Z,83.40
2023-07-11T07:20:22.340Z,83.78
2023-07-11T07:21:22.304Z,83.11
2023-07-11T07:22:43.268Z,83.11
2023-07-11T07:23:22.241Z,83.05
2023-07-11T07:24:22.203Z,83.05
2023-07-11T07:25:26.554Z,83.15
2023-07-11T07:26:22.153Z,83.73
2023-07-11T07:27:28.408Z,83.83
2023-07-11T07:28:43.104Z,83.44
2023-07-11T07:29:22.065Z,83.48
2023-07-11T07:30:22.052Z,83.28
2023-07-11T07:31:22.064Z,83.48
2023-07-11T07:32:22.004Z,82.32
2023-07-11T07:33:21.990Z,81.73
2023-07-11T07:34:42.958Z,81.64
2023-07-11T07:35:21.923Z,81.25
2023-07-11T07:36:21.887Z,81.29
2023-07-11T07:37:21.861Z,81.29
2023-07-11T07:38:21.826Z,81.29
2023-07-11T07:39:21.792Z,80.71
2023-07-11T07:40:42.819Z,80.90
2023-07-11T07:41:21.769Z,80.71
2023-07-11T07:42:21.719Z,81.20
2023-07-11T07:43:21.709Z,80.94
2023-07-11T07:44:21.715Z,80.55
2023-07-11T07:45:21.662Z,81.33
2023-07-11T07:46:42.673Z,79.78
2023-07-11T07:47:21.636Z,79.49
2023-07-11T07:48:21.559Z,79.68
2023-07-11T07:49:21.549Z,79.39
2023-07-11T07:50:21.514Z,78.81
2023-07-11T07:51:21.481Z,78.81
2023-07-11T07:52:42.447Z,78.81
2023-07-11T07:53:21.438Z,78.52
2023-07-11T07:54:21.415Z,78.66
2023-07-11T07:55:21.364Z,78.66
2023-07-11T07:56:21.366Z,78.66
2023-07-11T07:57:21.335Z,78.46
2023-07-11T07:58:44.014Z,78.66
2023-07-11T07:59:21.261Z,78.27
2023-07-11T08:00:21.244Z,77.88
2023-07-11T08:01:21.213Z,77.62
2023-07-11T08:02:21.219Z,77.04
2023-07-11T08:03:21.273Z,77.34
2023-07-11T08:04:42.225Z,77.72
2023-07-11T08:05:21.112Z,77.53
2023-07-11T08:06:21.136Z,77.14
2023-07-11T08:07:21.048Z,77.53
2023-07-11T08:08:22.512Z,77.28
2023-07-11T08:09:20.999Z,76.65
2023-07-11T08:10:41.973Z,76.98
2023-07-11T08:11:20.962Z,77.08
2023-07-11T08:12:20.911Z,77.18
2023-07-11T08:13:20.891Z,76.98
2023-07-11T08:14:20.883Z,76.40
2023-07-11T08:15:20.840Z,76.40
2023-07-11T08:16:41.854Z,76.21
2023-07-11T08:17:20.877Z,76.11
2023-07-11T08:18:20.784Z,76.79
2023-07-11T08:19:20.726Z,76.60
2023-07-11T08:20:20.704Z,77.37
2023-07-11T08:21:20.696Z,77.02
2023-07-11T08:22:41.666Z,76.92
2023-07-11T08:23:20.631Z,75.67
2023-07-11T08:24:20.646Z,76.34
2023-07-11T08:25:20.583Z,75.95
2023-07-11T08:26:20.550Z,75.57
2023-07-11T08:27:20.540Z,75.57
2023-07-11T08:28:41.501Z,75.08
2023-07-11T08:29:29.763Z,75.08
2023-07-11T08:30:20.440Z,74.60
2023-07-11T08:31:20.518Z,74.40
2023-07-11T08:32:20.448Z,74.24
2023-07-11T08:33:20.399Z,74.63
2023-07-11T08:34:41.383Z,74.24
2023-07-11T08:35:20.315Z,74.34
2023-07-11T08:36:20.317Z,73.95
2023-07-11T08:37:20.263Z,74.44
2023-07-11T08:38:20.233Z,74.54
2023-07-11T08:39:20.212Z,75.21
2023-07-11T08:40:48.193Z,75.41
2023-07-11T08:41:20.167Z,74.34
2023-07-11T08:42:20.220Z,74.44
2023-07-11T08:43:20.146Z,74.05
2023-07-11T08:44:20.093Z,74.44
2023-07-11T08:45:20.062Z,74.63
2023-07-11T08:46:41.058Z,73.37
2023-07-11T08:47:20.001Z,73.85
2023-07-11T08:48:20.564Z,73.99
2023-07-11T08:49:19.952Z,73.56
2023-07-11T08:50:19.965Z,73.66
2023-07-11T08:51:19.933Z,74.08
2023-07-11T08:52:40.878Z,74.28
2023-07-11T08:53:19.851Z,74.28
2023-07-11T08:54:22.123Z,73.89
2023-07-11T08:55:19.853Z,73.50
2023-07-11T08:56:19.795Z,73.21
2023-07-11T08:57:19.750Z,73.69
2023-07-11T08:58:40.726Z,72.82
2023-07-11T08:59:19.684Z,73.30
2023-07-11T09:00:19.696Z,73.60
2023-07-11T09:01:19.650Z,73.60
2023-07-11T09:02:19.617Z,73.60
2023-07-11T09:03:19.638Z,73.69
2023-07-11T09:04:40.564Z,73.60
2023-07-11T09:05:19.529Z,73.11
2023-07-11T09:06:19.504Z,72.47
2023-07-11T09:07:19.489Z,72.53
2023-07-11T09:08:19.461Z,73.21
2023-07-11T09:09:19.429Z,73.44
2023-07-11T09:10:48.625Z,73.63
2023-07-11T09:11:19.388Z,72.96
2023-07-11T09:12:19.357Z,73.44
2023-07-11T09:13:19.323Z,73.73
2023-07-11T09:14:19.380Z,73.05
2023-07-11T09:15:19.278Z,72.17
2023-07-11T09:16:40.315Z,71.40
2023-07-11T09:17:19.257Z,71.50
2023-07-11T09:18:19.207Z,72.17
2023-07-11T09:19:19.191Z,72.37
2023-07-11T09:20:19.158Z,72.17
2023-07-11T09:21:19.173Z,72.08
2023-07-11T09:22:40.099Z,72.66
2023-07-11T09:23:37.112Z,72.76
2023-07-11T09:24:22.202Z,72.17
2023-07-11T09:25:19.028Z,71.98
2023-07-11T09:26:19.022Z,72.89
2023-07-11T09:27:18.996Z,72.41
2023-07-11T09:28:39.958Z,71.62
2023-07-11T09:29:18.923Z,71.92
2023-07-11T09:30:18.954Z,71.59
2023-07-11T09:31:18.957Z,71.33
2023-07-11T09:32:19.114Z,72.02
2023-07-11T09:33:18.915Z,71.62
2023-07-11T09:34:39.797Z,72.02
2023-07-11T09:35:18.772Z,71.23
2023-07-11T09:36:18.748Z,70.85
2023-07-11T09:37:18.745Z,70.95
2023-07-11T09:38:18.706Z,71.23
2023-07-11T09:39:18.674Z,70.65
2023-07-11T09:40:39.660Z,70.65
2023-07-11T09:41:18.629Z,70.75
2023-07-11T09:42:18.614Z,70.26
2023-07-11T09:43:18.573Z,70.75
2023-07-11T09:44:18.561Z,70.95
2023-07-11T09:45:18.531Z,70.17
2023-07-11T09:46:39.573Z,69.32
2023-07-11T09:47:18.487Z,69.58
2023-07-11T09:48:18.487Z,69.42
2023-07-11T09:49:18.421Z,69.13
2023-07-11T09:50:25.855Z,68.84
2023-07-11T09:51:18.391Z,69.52
2023-07-11T09:52:39.344Z,69.32
2023-07-11T09:53:18.327Z,68.06
2023-07-11T09:54:18.298Z,68.06
2023-07-11T09:55:18.275Z,68.16
2023-07-11T09:56:18.589Z,68.16
2023-07-11T09:57:18.214Z,67.57
2023-07-11T09:58:39.252Z,68.16
2023-07-11T09:59:18.176Z,68.55
2023-07-11T10:00:22.602Z,68.84
2023-07-11T10:01:18.191Z,70.50
2023-07-11T10:02:18.101Z,70.53
2023-07-11T10:03:18.074Z,71.01
2023-07-11T10:04:39.081Z,70.72
2023-07-11T10:05:18.033Z,70.82
2023-07-11T10:06:18.745Z,70.82
2023-07-11T10:07:17.966Z,69.56
2023-07-11T10:08:17.956Z,69.56
2023-07-11T10:09:17.944Z,68.38
2023-07-11T10:10:38.894Z,67.80
2023-07-11T10:11:17.895Z,68.29
2023-07-11T10:12:17.859Z,68.09
2023-07-11T10:13:25.801Z,67.99
2023-07-11T10:14:17.851Z,67.80
2023-07-11T10:15:17.771Z,67.50
2023-07-11T10:16:38.800Z,67.32
2023-07-11T10:17:17.769Z,67.41
2023-07-11T10:18:17.754Z,66.44
2023-07-11T10:19:17.662Z,66.44
2023-07-11T10:20:19.403Z,67.15
2023-07-11T10:21:19.688Z,65.98
2023-07-11T10:22:38.619Z,65.78
2023-07-11T10:23:17.619Z,65.69
2023-07-11T10:24:17.551Z,65.40
2023-07-11T10:25:17.524Z,66.08
2023-07-11T10:26:17.530Z,65.78
2023-07-11T10:27:17.486Z,65.20
2023-07-11T10:28:38.474Z,65.30
2023-07-11T10:29:25.106Z,65.11
2023-07-11T10:30:17.403Z,64.42
2023-07-11T10:31:17.418Z,63.84
2023-07-11T10:32:17.356Z,63.54
2023-07-11T10:33:21.623Z,63.15
2023-07-11T10:34:38.346Z,62.41
2023-07-11T10:35:17.281Z,62.31
2023-07-11T10:36:17.257Z,62.47
2023-07-11T10:37:17.234Z,62.31
2023-07-11T10:38:17.382Z,62.41
2023-07-11T10:39:17.187Z,62.99
2023-07-11T10:40:38.172Z,63.51
2023-07-11T10:41:17.126Z,64.19
2023-07-11T10:42:17.117Z,62.92
2023-07-11T10:43:17.093Z,62.53
2023-07-11T10:44:17.074Z,61.98
2023-07-11T10:45:17.044Z,61.88
2023-07-11T10:46:38.106Z,61.69
2023-07-11T10:47:16.990Z,61.20
2023-07-11T10:48:16.971Z,61.43
2023-07-11T10:49:16.985Z,61.23
2023-07-11T10:50:16.968Z,60.74
2023-07-11T10:51:16.908Z,60.64
2023-07-11T10:52:37.883Z,60.84
2023-07-11T10:53:16.841Z,60.64
2023-07-11T10:54:16.895Z,60.67
2023-07-11T10:55:16.829Z,60.74
2023-07-11T10:56:16.769Z,60.77
2023-07-11T10:57:20.143Z,60.77
2023-07-11T10:58:37.745Z,60.67
2023-07-11T10:59:16.709Z,59.82
2023-07-11T11:00:16.708Z,59.33
2023-07-11T11:01:16.724Z,59.33
2023-07-11T11:02:16.709Z,58.68
2023-07-11T11:03:16.704Z,59.17
2023-07-11T11:04:37.591Z,59.95
2023-07-11T11:05:16.593Z,60.14
2023-07-11T11:06:16.566Z,59.88
2023-07-11T11:07:16.525Z,59.09
2023-07-11T11:08:16.524Z,58.51
2023-07-11T11:09:16.522Z,58.54
2023-07-11T11:10:37.464Z,58.73
2023-07-11T11:11:16.716Z,58.44
2023-07-11T11:12:16.428Z,57.86
2023-07-11T11:13:16.417Z,57.68
2023-07-11T11:14:16.441Z,57.78
2023-07-11T11:15:16.382Z,56.81
2023-07-11T11:16:37.336Z,57.29
2023-07-11T11:17:16.322Z,57.98
2023-07-11T11:18:16.285Z,57.88
2023-07-11T11:19:16.344Z,57.12
2023-07-11T11:20:16.262Z,56.34
2023-07-11T11:21:21.116Z,56.73
2023-07-11T11:22:37.203Z,55.98
2023-07-11T11:23:16.174Z,55.78
2023-07-11T11:24:16.172Z,55.88
2023-07-11T11:25:16.128Z,55.02
2023-07-11T11:26:16.166Z,54.73
2023-07-11T11:27:16.099Z,55.12
2023-07-11T11:28:37.069Z,55.93
2023-07-11T11:29:16.065Z,55.35
2023-07-11T11:30:16.072Z,53.97
2023-07-11T11:31:16.030Z,54.17
2023-07-11T11:32:16.038Z,54.44
2023-07-11T11:33:15.967Z,54.36
2023-07-11T11:34:36.956Z,55.22
2023-07-11T11:35:16.854Z,55.54
2023-07-11T11:36:15.948Z,55.18
2023-07-11T11:37:15.916Z,53.80
2023-07-11T11:38:15.864Z,54.19
2023-07-11T11:39:15.841Z,54.02
2023-07-11T11:40:36.813Z,53.83
2023-07-11T11:41:15.812Z,54.14
2023-07-11T11:42:15.790Z,52.45
2023-07-11T11:43:19.253Z,53.06
2023-07-11T11:46:39.159Z,52.70
2023-07-11T11:51:15.646Z,52.72
2023-07-11T11:53:17.048Z,51.76
2023-07-11T11:54:15.553Z,51.28
2023-07-11T11:55:15.546Z,51.07
2023-07-11T11:56:22.379Z,51.57
2023-07-11T11:57:15.496Z,51.69
2023-07-11T11:58:36.485Z,50.88
2023-07-11T11:59:15.453Z,50.59
2023-07-11T12:00:15.425Z,50.61
2023-07-11T12:01:15.415Z,49.80
2023-07-11T12:02:15.433Z,51.10
2023-07-11T12:03:15.363Z,51.12
2023-07-11T12:04:36.449Z,50.73
2023-07-11T12:05:15.370Z,49.75
2023-07-11T12:06:15.312Z,50.21
2023-07-11T12:07:15.280Z,50.14
2023-07-11T12:08:15.262Z,49.55
2023-07-11T12:09:15.253Z,49.65
2023-07-11T12:10:36.251Z,50.54
2023-07-11T12:11:15.220Z,49.26
2023-07-11T12:12:15.210Z,49.97
2023-07-11T12:13:15.187Z,49.18
2023-07-11T12:14:15.199Z,49.38
2023-07-11T12:15:15.138Z,49.57
2023-07-11T12:16:42.528Z,48.91
2023-07-11T12:17:15.120Z,48.91
2023-07-11T12:18:15.139Z,48.02
2023-07-11T12:19:16.010Z,48.12
2023-07-11T12:20:15.050Z,48.44
2023-07-11T12:21:15.050Z,49.25
2023-07-11T12:22:36.040Z,47.23
2023-07-11T12:23:29.783Z,48.10
2023-07-11T12:24:41.429Z,49.33
2023-07-11T12:25:14.972Z,49.84
2023-07-11T12:26:14.955Z,48.36
2023-07-11T12:27:14.931Z,48.36
2023-07-11T12:28:35.950Z,47.47
2023-07-11T12:29:14.910Z,46.41
2023-07-11T12:30:14.919Z,46.41
2023-07-11T12:31:14.860Z,46.00
2023-07-11T12:32:14.864Z,47.18
2023-07-11T12:33:14.828Z,46.19
2023-07-11T12:34:35.804Z,46.19
2023-07-11T12:35:14.798Z,46.09
2023-07-11T12:36:14.763Z,45.97
2023-07-11T12:37:14.754Z,46.76
2023-07-11T12:38:14.740Z,46.47
2023-07-11T12:39:14.729Z,46.37
2023-07-11T12:40:35.714Z,47.16
2023-07-11T12:41:14.699Z,47.08
2023-07-11T12:42:14.646Z,45.92
2023-07-11T12:43:14.650Z,45.72
2023-07-11T12:44:14.623Z,45.42
2023-07-11T12:45:14.620Z,45.45
2023-07-11T12:46:35.651Z,46.06
2023-07-11T12:47:14.595Z,45.94
2023-07-11T12:48:14.629Z,45.52
2023-07-11T12:49:14.547Z,46.22
2023-07-11T12:50:14.514Z,45.54
2023-07-11T12:51:14.484Z,45.84
2023-07-11T12:52:35.490Z,45.64
2023-07-11T12:53:14.484Z,45.49
2023-07-11T12:54:14.452Z,45.00
2023-07-11T12:55:14.447Z,44.62
2023-07-11T12:56:14.404Z,44.20
2023-07-11T12:57:14.400Z,44.31
2023-07-11T12:58:35.375Z,45.07
2023-07-11T12:59:14.375Z,44.90